createdAt,value
2022-12-25T00:01:08.859Z,1.73
2022-12-25T00:11:10.769Z,1.80
2022-12-25T00:21:12.042Z,1.70
2022-12-25T00:31:13.391Z,1.83
2022-12-25T00:41:14.653Z,2.47
2022-12-25T00:51:15.948Z,2.45
2022-12-25T01:01:17.271Z,4.15
2022-12-25T01:11:18.634Z,4.88
2022-12-25T01:21:23.007Z,4.00
2022-12-25T01:31:24.253Z,2.43
2022-12-25T01:41:25.526Z,2.50
2022-12-25T01:51:26.782Z,2.30
2022-12-25T02:01:28.119Z,2.10
2022-12-25T02:11:47.843Z,3.03
2022-12-25T02:21:49.100Z,3.13
2022-12-25T02:31:50.372Z,2.95
2022-12-25T02:41:51.637Z,2.47
2022-12-25T02:52:11.750Z,2.60
2022-12-25T03:02:31.845Z,2.22
2022-12-25T03:12:33.154Z,2.42
2022-12-25T03:22:53.076Z,3.63
2022-12-25T03:32:58.758Z,3.10
2022-12-25T03:43:19.025Z,3.22
2022-12-25T03:53:38.835Z,3.28
2022-12-25T04:03:59.120Z,4.20
2022-12-25T04:14:19.016Z,3.10
2022-12-25T04:24:38.834Z,3.42
2022-12-25T04:34:58.884Z,4.38
2022-12-25T04:45:00.597Z,4.07
2022-12-25T04:55:01.810Z,3.97
2022-12-25T05:05:03.058Z,3.80
2022-12-25T05:15:04.318Z,4.20
2022-12-25T05:25:05.562Z,3.97
2022-12-25T05:35:08.735Z,4.47
2022-12-25T05:45:09.952Z,5.55
2022-12-25T05:55:11.224Z,5.72
2022-12-25T06:05:12.592Z,5.90
2022-12-25T06:15:13.935Z,5.70
2022-12-25T06:25:15.197Z,4.55
2022-12-25T06:35:16.411Z,5.40
2022-12-25T06:45:17.671Z,3.85
2022-12-25T06:55:18.936Z,4.70
2022-12-25T07:05:20.163Z,4.78
2022-12-25T07:15:21.435Z,4.10
2022-12-25T07:25:22.681Z,3.67
2022-12-25T07:35:23.929Z,4.13
2022-12-25T07:45:25.233Z,6.07
2022-12-25T07:55:26.495Z,4.45
2022-12-25T08:05:27.734Z,3.83
2022-12-25T08:15:28.978Z,3.33
2022-12-25T08:25:31.274Z,3.40
2022-12-25T08:35:32.507Z,3.70
2022-12-25T08:45:35.337Z,4.82
2022-12-25T08:55:36.953Z,7.82
2022-12-25T09:05:38.219Z,7.55
2022-12-25T09:15:39.548Z,4.97
2022-12-25T09:25:40.876Z,3.75
2022-12-25T09:35:42.115Z,2.90
2022-12-25T09:45:43.400Z,2.90
2022-12-25T09:55:44.620Z,3.20
2022-12-25T10:05:45.888Z,3.20
2022-12-25T10:15:47.163Z,3.95
2022-12-25T10:25:48.481Z,2.63
2022-12-25T10:35:49.725Z,2.85
2022-12-25T10:45:51.020Z,2.30
2022-12-25T10:55:52.273Z,5.22
2022-12-25T11:05:54.234Z,2.67
2022-12-25T11:15:55.516Z,2.58
2022-12-25T11:25:56.898Z,3.15
2022-12-25T11:35:58.181Z,2.70
2022-12-25T11:45:59.502Z,2.80
2022-12-25T11:56:00.764Z,2.70
2022-12-25T12:06:02.088Z,2.95
2022-12-25T12:16:05.864Z,2.83
2022-12-25T12:26:07.184Z,2.40
2022-12-25T12:36:08.435Z,2.40
2022-12-25T12:46:10.171Z,2.38
2022-12-25T12:56:11.430Z,2.22
2022-12-25T13:06:12.653Z,2.63
2022-12-25T13:16:13.923Z,3.20
2022-12-25T13:26:15.179Z,3.20
2022-12-25T13:36:16.579Z,4.25
2022-12-25T13:46:17.902Z,6.78
2022-12-25T13:56:19.216Z,5.20
2022-12-25T14:06:20.523Z,3.33
2022-12-25T14:16:21.818Z,2.80
2022-12-25T14:26:23.081Z,2.72
2022-12-25T14:36:24.368Z,2.60
2022-12-25T14:46:26.136Z,2.65
2022-12-25T14:56:27.860Z,3.15
2022-12-25T15:06:29.286Z,5.75
2022-12-25T15:16:30.674Z,4.57
2022-12-25T15:26:32.012Z,5.50
2022-12-25T15:36:34.048Z,4.97
2022-12-25T15:46:35.456Z,6.03
2022-12-25T15:56:36.778Z,10.35
2022-12-25T16:06:38.026Z,11.05
2022-12-25T16:16:39.351Z,11.20
2022-12-25T16:26:40.739Z,7.22
2022-12-25T16:36:41.970Z,8.75
2022-12-25T16:46:43.332Z,7.28
2022-12-25T16:56:44.586Z,10.55
2022-12-25T17:06:45.825Z,19.00
2022-12-25T17:16:47.133Z,13.00
2022-12-25T17:26:48.428Z,11.48
2022-12-25T17:36:49.761Z,7.32
2022-12-25T17:46:51.264Z,10.00
2022-12-25T17:56:52.623Z,10.63
2022-12-25T18:06:53.886Z,10.30
2022-12-25T18:16:55.163Z,13.35
2022-12-25T18:26:56.420Z,9.95
2022-12-25T18:37:02.830Z,9.75
2022-12-25T18:47:04.198Z,9.52
2022-12-25T18:57:07.349Z,8.07
2022-12-25T19:07:08.732Z,7.68
2022-12-25T19:17:10.611Z,6.03
2022-12-25T19:27:11.860Z,6.00
2022-12-25T19:37:13.239Z,7.40
2022-12-25T19:47:14.492Z,5.68
2022-12-25T19:57:15.731Z,7.22
2022-12-25T20:07:17.033Z,6.13
2022-12-25T20:17:18.318Z,5.00
2022-12-25T20:27:19.723Z,5.18
2022-12-25T20:37:21.075Z,4.70
2022-12-25T20:47:22.395Z,4.60
2022-12-25T20:57:23.707Z,4.65
2022-12-25T21:07:24.983Z,3.90
2022-12-25T21:17:26.235Z,4.10
2022-12-25T21:27:27.480Z,4.28
2022-12-25T21:37:28.712Z,3.90
2022-12-25T21:47:59.990Z,3.78
2022-12-25T21:57:51.195Z,3.88
2022-12-25T22:07:52.513Z,4.50
2022-12-25T22:18:12.378Z,4.30
2022-12-25T22:28:13.657Z,4.00
2022-12-25T22:38:14.932Z,3.72
2022-12-25T22:48:16.210Z,3.30
2022-12-25T22:58:17.528Z,3.70
2022-12-25T23:08:18.759Z,2.90
2022-12-25T23:18:38.490Z,3.47
2022-12-25T23:29:02.828Z,3.25
2022-12-25T23:39:09.431Z,3.45
2022-12-25T23:49:11.562Z,3.13
2022-12-25T23:59:12.824Z,3.67
